createdAt,value
2018-11-06T05:51:39.265Z,3.90
2018-11-06T05:52:40.186Z,3.92
2018-11-06T05:53:39.076Z,3.90
2018-11-06T05:54:39.212Z,3.93
2018-11-06T05:55:39.074Z,3.82
2018-11-06T05:56:39.045Z,3.78
2018-11-06T05:57:39.051Z,3.81
2018-11-06T05:58:39.060Z,3.75
2018-11-06T05:59:39.016Z,3.77
2018-11-06T06:00:38.990Z,3.86
2018-11-06T06:01:38.951Z,3.82
2018-11-06T06:02:39.929Z,3.75
2018-11-06T06:03:38.952Z,3.74
2018-11-06T06:04:38.933Z,3.86
2018-11-06T06:05:39.012Z,3.82
2018-11-06T06:06:38.863Z,3.89
2018-11-06T06:07:38.850Z,3.96
2018-11-06T06:08:38.885Z,3.81
2018-11-06T06:09:38.933Z,3.98
2018-11-06T06:10:38.920Z,3.96
2018-11-06T06:11:39.461Z,3.93
2018-11-06T06:14:01.465Z,3.98
2018-11-06T06:15:01.217Z,3.98
2018-11-06T06:16:01.257Z,3.99
2018-11-06T06:17:01.307Z,4.00
2018-11-06T06:18:01.201Z,3.96
2018-11-06T06:19:01.185Z,3.93
2018-11-06T06:20:01.153Z,3.96
2018-11-06T06:21:01.112Z,4.02
2018-11-06T06:22:01.144Z,3.90
2018-11-06T06:23:01.080Z,4.00
2018-11-06T06:24:01.113Z,3.98
2018-11-06T06:25:01.842Z,3.99
2018-11-06T06:26:01.159Z,4.00
2018-11-06T06:27:01.289Z,3.95
2018-11-06T06:28:01.115Z,4.02
2018-11-06T06:29:01.058Z,4.06
2018-11-06T06:30:01.104Z,4.08
2018-11-06T06:31:01.015Z,4.02
2018-11-06T06:32:00.994Z,4.04
2018-11-06T06:33:00.979Z,4.06
2018-11-06T06:34:01.013Z,4.06
2018-11-06T06:35:01.043Z,4.14
2018-11-06T06:36:00.958Z,4.11
2018-11-06T06:37:01.009Z,4.16
2018-11-06T06:38:00.932Z,4.25
2018-11-06T06:39:00.979Z,4.18
2018-11-06T06:40:00.928Z,4.17
2018-11-06T06:41:01.006Z,4.16
2018-11-06T06:42:00.892Z,4.13
2018-11-06T06:43:00.878Z,4.16
2018-11-06T06:44:00.868Z,4.28
2018-11-06T06:45:00.919Z,4.13
2018-11-06T06:46:00.905Z,4.21
2018-11-06T06:47:00.835Z,4.25
2018-11-06T06:48:00.827Z,4.26
2018-11-06T06:49:00.865Z,4.32
2018-11-06T06:50:00.959Z,4.21
2018-11-06T06:51:00.868Z,4.21
2018-11-06T06:52:00.797Z,4.25
2018-11-06T06:53:00.803Z,4.24
2018-11-06T06:54:00.841Z,4.25
2018-11-06T06:55:00.857Z,4.34
2018-11-06T06:56:00.852Z,4.29
2018-11-06T06:57:00.807Z,4.29
2018-11-06T06:58:00.762Z,4.28
2018-11-06T06:59:00.708Z,4.31
2018-11-06T07:00:00.726Z,4.26
2018-11-06T07:01:00.748Z,4.25
2018-11-06T07:02:00.764Z,4.34
2018-11-06T07:03:00.732Z,4.28
2018-11-06T07:04:00.703Z,4.32
2018-11-06T07:05:00.640Z,4.35
2018-11-06T07:06:00.718Z,4.34
2018-11-06T07:07:00.619Z,4.36
2018-11-06T07:08:00.841Z,4.36
2018-11-06T07:09:00.600Z,4.35
2018-11-06T07:10:00.590Z,4.38
2018-11-06T07:11:00.603Z,4.35
2018-11-06T07:12:00.593Z,4.47
2018-11-06T07:13:00.613Z,4.51
2018-11-06T07:14:00.617Z,4.46
2018-11-06T07:15:00.610Z,4.61
2018-11-06T07:16:00.530Z,4.51
2018-11-06T07:17:00.583Z,4.61
2018-11-06T07:18:00.560Z,4.65
2018-11-06T07:19:00.489Z,4.68
2018-11-06T07:20:00.483Z,4.74
2018-11-06T07:21:00.504Z,4.77
2018-11-06T07:22:00.451Z,4.74
2018-11-06T07:23:00.494Z,4.83
2018-11-06T07:24:00.539Z,4.90
2018-11-06T07:25:00.458Z,4.94
2018-11-06T07:26:00.563Z,5.02
2018-11-06T07:27:00.503Z,5.04
2018-11-06T07:28:00.424Z,4.99
2018-11-06T07:29:00.533Z,5.02
2018-11-06T07:30:00.360Z,4.97
2018-11-06T07:31:00.384Z,5.01
2018-11-06T07:32:00.379Z,5.12
2018-11-06T07:33:00.408Z,5.08
2018-11-06T07:34:00.613Z,5.04
2018-11-06T07:35:00.586Z,5.15
2018-11-06T07:36:00.567Z,5.22
2018-11-06T07:37:00.571Z,5.15
2018-11-06T07:38:00.411Z,5.23
2018-11-06T07:39:00.616Z,5.22
2018-11-06T07:40:00.462Z,5.33
2018-11-06T07:41:00.438Z,5.37
2018-11-06T07:42:00.435Z,5.35
2018-11-06T07:43:00.216Z,5.55
2018-11-06T07:44:00.234Z,5.59
2018-11-06T07:45:00.234Z,5.66
2018-11-06T07:46:00.239Z,5.73
2018-11-06T07:47:00.254Z,5.67
2018-11-06T07:48:00.211Z,5.77
2018-11-06T07:49:00.285Z,5.74
2018-11-06T07:50:01.211Z,5.78
2018-11-06T07:51:00.213Z,5.83
2018-11-06T07:52:00.205Z,5.80
2018-11-06T07:53:00.140Z,5.78
2018-11-06T07:54:00.114Z,5.84
2018-11-06T07:55:00.109Z,5.87
2018-11-06T07:56:00.138Z,5.95
2018-11-06T07:57:00.148Z,5.92
2018-11-06T07:58:00.117Z,5.90
2018-11-06T07:59:00.114Z,5.96
2018-11-06T08:00:00.054Z,5.98
2018-11-06T08:01:00.125Z,6.03
2018-11-06T08:02:00.089Z,6.05
2018-11-06T08:03:00.349Z,6.10
2018-11-06T08:04:00.192Z,6.17
2018-11-06T08:05:00.118Z,6.16
2018-11-06T08:06:00.075Z,6.25
2018-11-06T08:07:00.097Z,6.25
2018-11-06T08:08:00.008Z,6.33
2018-11-06T08:08:59.939Z,6.36
2018-11-06T08:09:59.920Z,6.43
2018-11-06T08:10:59.912Z,6.39
2018-11-06T08:11:59.938Z,6.35
2018-11-06T08:12:59.980Z,6.48
2018-11-06T08:13:59.891Z,6.53
2018-11-06T08:36:54.565Z,7.81
2018-11-06T08:37:54.518Z,7.99
2018-11-06T08:38:57.542Z,8.03
2018-11-06T08:49:23.076Z,8.64
2018-11-06T08:50:23.005Z,8.78
2018-11-06T08:51:22.937Z,8.85
2018-11-06T08:52:22.917Z,8.96
2018-11-06T08:53:22.891Z,9.12
2018-11-06T08:54:23.115Z,9.17
2018-11-06T08:55:22.857Z,9.13
2018-11-06T08:56:22.876Z,9.16
2018-11-06T08:57:22.975Z,9.26
2018-11-06T09:19:03.613Z,9.80
2018-11-06T09:20:03.618Z,9.95
2018-11-06T09:21:03.493Z,9.93
2018-11-06T09:22:02.718Z,9.91
2018-11-06T09:23:03.006Z,9.96
2018-11-06T09:24:03.002Z,9.95
2018-11-06T09:25:02.602Z,10.07
2018-11-06T09:26:02.624Z,10.06
2018-11-06T09:27:02.559Z,10.02
2018-11-06T09:28:02.620Z,10.07
2018-11-06T09:29:02.519Z,9.99
2018-11-06T09:30:02.531Z,10.04
2018-11-06T09:31:02.650Z,10.06
2018-11-06T09:32:02.533Z,10.11
2018-11-06T09:33:02.462Z,10.20
2018-11-06T09:34:02.528Z,10.16
2018-11-06T09:35:02.477Z,10.11
2018-11-06T09:36:02.462Z,10.10
2018-11-06T09:37:02.501Z,10.11
2018-11-06T09:38:02.485Z,10.25
2018-11-06T09:39:02.444Z,10.16
2018-11-06T09:40:02.443Z,10.10
2018-11-06T09:41:02.523Z,10.26
2018-11-06T09:42:03.431Z,10.28
2018-11-06T09:43:02.371Z,10.25
2018-11-06T09:44:02.373Z,10.36
2018-11-06T09:45:02.417Z,10.34
2018-11-06T09:46:02.332Z,10.29
2018-11-06T09:47:02.299Z,10.43
2018-11-06T09:48:02.310Z,10.42
2018-11-06T09:49:02.287Z,10.38
2018-11-06T09:50:02.263Z,10.35
2018-11-06T09:51:02.257Z,10.36
2018-11-06T09:52:02.318Z,10.38
2018-11-06T09:53:02.272Z,10.39
2018-11-06T09:54:02.303Z,10.47
2018-11-06T09:55:02.209Z,10.43
2018-11-06T09:56:02.196Z,10.46
2018-11-06T09:57:02.242Z,10.46
2018-11-06T09:58:02.293Z,10.49
2018-11-06T09:59:02.215Z,10.55
2018-11-06T10:00:02.370Z,10.58
2018-11-06T10:01:02.196Z,10.55
2018-11-06T10:02:02.195Z,10.57
2018-11-06T10:03:02.141Z,10.62
2018-11-06T10:04:02.119Z,10.68
2018-11-06T10:05:02.155Z,10.62
2018-11-06T10:16:37.719Z,10.84
2018-11-06T10:17:38.111Z,10.91
2018-11-06T10:18:38.043Z,10.94
2018-11-06T10:19:37.285Z,10.93
2018-11-06T10:20:37.234Z,11.05
2018-11-06T10:21:37.184Z,10.95
2018-11-06T10:22:37.384Z,11.11
2018-11-06T10:23:42.737Z,11.11
2018-11-06T10:24:38.122Z,11.19
2018-11-06T10:25:37.266Z,11.19
2018-11-06T10:26:37.200Z,11.27
2018-11-06T10:27:37.148Z,11.28
2018-11-06T10:28:37.154Z,11.30
2018-11-06T10:29:37.136Z,11.35
2018-11-06T10:30:37.080Z,11.39
2018-11-06T10:31:37.091Z,11.46
2018-11-06T10:32:37.002Z,11.49
2018-11-06T10:33:37.114Z,11.46
2018-11-06T10:34:37.069Z,11.53
2018-11-06T10:35:37.088Z,11.60
2018-11-06T10:36:37.159Z,11.70
2018-11-06T10:37:37.057Z,11.72
2018-11-06T10:38:37.133Z,11.72
2018-11-06T10:39:37.639Z,11.72
2018-11-06T10:40:37.676Z,11.75
2018-11-06T10:41:36.989Z,11.84
2018-11-06T10:42:37.095Z,11.93
2018-11-06T10:43:37.099Z,12.03
2018-11-06T10:44:36.966Z,12.05
2018-11-06T10:45:37.065Z,12.13
2018-11-06T10:46:36.919Z,12.11
2018-11-06T10:47:36.904Z,12.23
2018-11-06T10:48:36.984Z,12.40
2018-11-06T10:49:38.549Z,12.33
2018-11-06T10:50:37.514Z,12.46
2018-11-06T10:51:37.026Z,12.43
2018-11-06T10:52:36.913Z,12.51
2018-11-06T10:53:37.153Z,12.55
2018-11-06T10:54:38.521Z,12.56
2018-11-06T10:55:36.848Z,12.66
2018-11-06T10:56:37.611Z,12.80
2018-11-06T10:57:36.849Z,12.80
2018-11-06T10:58:37.647Z,12.84
2018-11-06T10:59:37.487Z,12.89
2018-11-06T11:00:36.804Z,12.87
2018-11-06T11:01:38.813Z,12.85
2018-11-06T11:02:36.771Z,12.99
2018-11-06T11:03:36.772Z,13.04
2018-11-06T11:04:36.657Z,13.07
2018-11-06T11:05:38.542Z,13.31
2018-11-06T11:06:36.704Z,13.24
2018-11-06T11:07:36.757Z,13.28
2018-11-06T11:08:36.624Z,13.29
2018-11-06T11:09:36.722Z,13.25
2018-11-06T11:10:36.654Z,13.47
2018-11-06T11:11:36.677Z,13.44
2018-11-06T11:12:36.847Z,13.46
2018-11-06T11:13:36.720Z,13.48
2018-11-06T11:14:36.656Z,13.47
2018-11-06T11:15:36.604Z,13.57
2018-11-06T11:16:36.574Z,13.55
2018-11-06T11:17:36.496Z,13.57
2018-11-06T11:18:36.516Z,13.63
2018-11-06T11:19:36.548Z,13.65
2018-11-06T11:20:36.525Z,13.68
2018-11-06T11:21:36.660Z,13.75
2018-11-06T11:22:36.591Z,13.81
2018-11-06T11:23:36.558Z,13.84
2018-11-06T11:24:37.081Z,13.88
2018-11-06T11:25:36.672Z,13.87
2018-11-06T11:26:36.531Z,13.91
2018-11-06T11:27:36.517Z,14.01
2018-11-06T11:28:36.403Z,13.93
2018-11-06T11:29:36.457Z,13.94
2018-11-06T11:30:36.405Z,14.04
2018-11-06T11:31:36.428Z,14.11
2018-11-06T11:32:36.345Z,14.09
2018-11-06T11:33:36.435Z,14.19
2018-11-06T11:34:37.018Z,14.12
2018-11-06T11:35:36.392Z,14.16
2018-11-06T11:36:37.022Z,14.21
2018-11-06T11:37:36.361Z,14.36
2018-11-06T11:38:36.433Z,14.34
2018-11-06T11:39:36.284Z,14.34
2018-11-06T11:40:36.437Z,14.41
2018-11-06T11:41:37.204Z,14.46
2018-11-06T11:42:36.236Z,14.44
2018-11-06T11:43:36.389Z,14.53
2018-11-06T11:44:36.261Z,14.52
2018-11-06T11:45:36.287Z,14.54
2018-11-06T11:46:36.217Z,14.59
2018-11-06T11:47:36.179Z,14.60
2018-11-06T11:48:36.261Z,14.61
2018-11-06T11:49:37.580Z,14.66
2018-11-06T11:50:36.164Z,14.72
2018-11-06T11:51:36.195Z,14.71
2018-11-06T11:52:36.161Z,14.74
2018-11-06T11:53:36.110Z,14.71
2018-11-06T11:54:36.129Z,14.79
2018-11-06T11:55:36.121Z,14.74
2018-11-06T11:56:36.123Z,14.86
2018-11-06T11:57:36.180Z,14.91
2018-11-06T11:58:36.295Z,14.93
2018-11-06T11:59:36.101Z,14.86
2018-11-06T12:00:36.073Z,14.95
2018-11-06T12:01:35.996Z,15.01
2018-11-06T12:02:36.076Z,15.04
2018-11-06T12:03:36.029Z,15.01
2018-11-06T12:04:35.959Z,15.07
2018-11-06T12:05:36.198Z,15.09
2018-11-06T12:06:36.031Z,15.19
2018-11-06T12:07:36.030Z,15.15
2018-11-06T12:08:35.993Z,15.11
2018-11-06T12:09:35.974Z,15.23
2018-11-06T12:10:36.017Z,15.20
2018-11-06T12:11:36.533Z,15.16
2018-11-06T12:12:35.918Z,15.27
2018-11-06T12:13:35.970Z,15.30
2018-11-06T12:14:35.997Z,15.25
2018-11-06T12:15:35.842Z,15.27
2018-11-06T12:16:40.547Z,15.31
2018-11-06T12:17:36.167Z,15.41
2018-11-06T12:18:35.834Z,15.27
2018-11-06T12:19:35.825Z,15.31
2018-11-06T12:20:35.840Z,15.44
2018-11-06T12:21:35.784Z,15.41
2018-11-06T12:22:35.883Z,15.40
2018-11-06T12:23:35.723Z,15.49
2018-11-06T12:24:35.739Z,15.49
2018-11-06T12:25:35.913Z,15.55
2018-11-06T12:26:35.719Z,15.62
2018-11-06T12:27:35.857Z,15.56
2018-11-06T12:28:35.669Z,15.62
2018-11-06T12:29:35.658Z,15.70
2018-11-06T12:30:35.685Z,15.64
2018-11-06T12:31:35.670Z,15.64
2018-11-06T12:32:35.639Z,15.77
2018-11-06T12:33:35.623Z,15.76
2018-11-06T12:34:35.600Z,15.81
2018-11-06T12:35:35.612Z,15.76
2018-11-06T12:36:35.629Z,15.81
2018-11-06T12:37:35.663Z,15.84
2018-11-06T12:38:35.573Z,15.86
2018-11-06T12:39:35.547Z,15.89
2018-11-06T12:40:35.547Z,15.92
2018-11-06T12:41:35.521Z,15.93
2018-11-06T12:42:35.509Z,15.95
2018-11-06T12:43:35.549Z,16.04
2018-11-06T12:44:35.490Z,16.06
2018-11-06T12:45:35.491Z,16.10
2018-11-06T12:46:35.467Z,16.16
2018-11-06T12:47:35.454Z,16.17
2018-11-06T12:48:35.456Z,16.14
2018-11-06T12:49:35.481Z,16.14
2018-11-06T12:50:35.415Z,16.27
2018-11-06T12:51:35.412Z,16.32
2018-11-06T12:52:35.458Z,16.30
2018-11-06T12:53:35.473Z,16.45
2018-11-06T12:54:35.541Z,16.44
2018-11-06T12:55:35.456Z,16.41
2018-11-06T13:08:00.578Z,16.69
2018-11-06T13:09:00.262Z,16.85
2018-11-06T13:09:59.384Z,16.75
2018-11-06T13:10:59.339Z,16.82
2018-11-06T13:11:59.316Z,16.85
2018-11-06T13:12:59.290Z,16.90
2018-11-06T13:13:59.619Z,16.87
2018-11-06T13:14:59.465Z,16.91
2018-11-06T13:15:59.283Z,16.92
2018-11-06T13:16:59.361Z,16.90
2018-11-06T13:17:59.264Z,16.85
2018-11-06T13:18:59.236Z,16.91
2018-11-06T13:19:59.245Z,16.92
2018-11-06T13:20:59.273Z,16.92
2018-11-06T13:21:59.198Z,16.87
2018-11-06T13:22:59.195Z,16.90
2018-11-06T13:23:59.173Z,16.88
2018-11-06T13:24:59.178Z,16.91
2018-11-06T13:25:59.226Z,16.99
2018-11-06T13:26:59.142Z,17.02
2018-11-06T13:27:59.127Z,17.00
2018-11-06T13:28:59.114Z,17.00
2018-11-06T13:29:59.111Z,17.02
2018-11-06T13:30:59.094Z,16.96
2018-11-06T13:31:59.129Z,16.90
2018-11-06T13:32:59.070Z,16.96
2018-11-06T13:33:59.086Z,16.98
2018-11-06T13:34:59.070Z,17.00
2018-11-06T13:35:59.044Z,16.98
2018-11-06T13:36:59.026Z,16.98
2018-11-06T13:37:59.033Z,16.98
2018-11-06T13:38:59.055Z,16.87
2018-11-06T13:39:59.006Z,16.92
2018-11-06T13:40:59.016Z,16.92
2018-11-06T13:41:58.991Z,16.92
2018-11-06T13:42:59.176Z,16.90
2018-11-06T13:43:59.132Z,16.92
2018-11-06T13:44:59.071Z,16.95
2018-11-06T13:45:58.953Z,16.88
2018-11-06T13:46:58.951Z,16.87
2018-11-06T13:47:58.905Z,16.98
2018-11-06T13:48:58.904Z,16.95
2018-11-06T13:49:58.912Z,16.91
2018-11-06T13:50:58.903Z,16.90
2018-11-06T13:51:58.891Z,16.88
2018-11-06T13:52:58.922Z,16.87
2018-11-06T13:53:58.844Z,16.91
2018-11-06T13:54:58.842Z,16.90
2018-11-06T13:55:58.812Z,16.84
2018-11-06T13:56:58.856Z,16.80
2018-11-06T13:57:58.820Z,16.80
2018-11-06T13:58:58.783Z,16.80
2018-11-06T13:59:58.781Z,16.81
2018-11-06T14:00:58.758Z,16.80
2018-11-06T14:01:58.832Z,16.80
2018-11-06T14:02:58.968Z,16.84
2018-11-06T14:03:58.728Z,16.84
2018-11-06T14:04:58.724Z,16.85
2018-11-06T14:06:00.824Z,16.85
2018-11-06T14:06:58.866Z,16.85
2018-11-06T14:07:59.260Z,16.84
2018-11-06T14:08:59.754Z,16.73
2018-11-06T14:09:58.753Z,16.81
2018-11-06T14:10:58.753Z,16.80
2018-11-06T14:11:58.695Z,16.82
2018-11-06T14:12:58.710Z,16.85
2018-11-06T14:13:58.683Z,16.81
2018-11-06T14:14:58.641Z,16.82
2018-11-06T14:15:58.684Z,16.80
2018-11-06T14:16:58.834Z,16.80
2018-11-06T14:17:58.690Z,16.75
2018-11-06T14:18:58.737Z,16.77
2018-11-06T14:19:58.857Z,16.78
2018-11-06T14:20:58.687Z,16.77
2018-11-06T14:21:58.629Z,16.80
2018-11-06T14:22:58.636Z,16.77
2018-11-06T14:23:58.513Z,16.80
2018-11-06T14:24:58.682Z,16.72
2018-11-06T14:25:58.801Z,16.75
2018-11-06T14:26:58.550Z,16.77
2018-11-06T14:27:58.474Z,16.63
2018-11-06T14:28:58.557Z,16.62
2018-11-06T14:30:02.320Z,16.65
2018-11-06T14:30:58.569Z,16.62
2018-11-06T14:31:58.435Z,16.62
2018-11-06T14:32:58.545Z,16.57
2018-11-06T14:33:58.408Z,16.55
2018-11-06T14:34:58.545Z,16.52
2018-11-06T14:35:58.637Z,16.60
2018-11-06T14:36:58.422Z,16.60
2018-11-06T14:37:58.465Z,16.45
2018-11-06T14:38:58.361Z,16.45
2018-11-06T14:39:58.343Z,16.48
2018-11-06T14:40:58.409Z,16.47
2018-11-06T14:41:58.429Z,16.51
2018-11-06T14:42:58.447Z,16.50
2018-11-06T14:43:58.317Z,16.42
2018-11-06T14:44:58.304Z,16.42
2018-11-06T14:45:58.297Z,16.33
2018-11-06T14:46:58.406Z,16.27
2018-11-06T14:47:58.519Z,16.25
2018-11-06T14:48:58.355Z,16.22
2018-11-06T14:49:58.273Z,16.18
2018-11-06T14:50:58.264Z,16.13
2018-11-06T14:51:58.215Z,16.11
2018-11-06T14:52:58.242Z,16.17
2018-11-06T14:53:58.225Z,16.06
2018-11-06T14:54:58.189Z,15.99
2018-11-06T14:55:58.188Z,16.07
2018-11-06T14:56:58.185Z,15.99
2018-11-06T14:57:58.159Z,15.98
2018-11-06T14:58:58.270Z,15.91
2018-11-06T14:59:58.124Z,15.89
2018-11-06T15:00:58.257Z,15.92
2018-11-06T15:01:58.118Z,15.89
2018-11-06T15:02:58.974Z,15.88
2018-11-06T15:03:58.114Z,15.78
2018-11-06T15:04:58.081Z,15.76
2018-11-06T15:05:58.069Z,15.73
2018-11-06T15:06:58.117Z,15.77
2018-11-06T15:07:58.183Z,15.67
2018-11-06T15:08:59.668Z,15.67
2018-11-06T15:09:58.035Z,15.66
2018-11-06T15:10:58.021Z,15.56
2018-11-06T15:11:58.483Z,15.58
2018-11-06T15:12:58.051Z,15.56
2018-11-06T15:13:57.976Z,15.46
2018-11-06T15:14:57.997Z,15.41
2018-11-06T15:15:57.986Z,15.40
2018-11-06T15:16:58.055Z,15.28
2018-11-06T15:17:57.988Z,15.37
2018-11-06T15:18:57.921Z,15.31
2018-11-06T15:19:57.915Z,15.31
2018-11-06T15:20:57.990Z,15.33
2018-11-06T15:21:57.941Z,15.30
2018-11-06T15:22:57.976Z,15.23
2018-11-06T15:23:57.890Z,15.20
2018-11-06T15:24:57.938Z,15.13
2018-11-06T15:25:57.840Z,15.15
2018-11-06T15:26:57.854Z,15.12
2018-11-06T15:27:57.911Z,15.13
2018-11-06T15:28:57.982Z,15.03
2018-11-06T15:29:57.852Z,14.90
2018-11-06T15:30:57.797Z,14.90
2018-11-06T15:31:57.793Z,14.90
2018-11-06T15:32:57.797Z,14.91
2018-11-06T15:33:57.753Z,14.74
2018-11-06T15:34:57.819Z,14.75
2018-11-06T15:35:57.827Z,14.80
2018-11-06T15:37:08.455Z,14.67
2018-11-06T15:37:58.016Z,14.75
2018-11-06T15:38:57.849Z,14.57
2018-11-06T15:39:57.807Z,14.63
2018-11-06T15:40:58.104Z,14.53
2018-11-06T15:41:57.959Z,14.54
2018-11-06T15:42:57.763Z,14.49
2018-11-06T15:43:57.717Z,14.46
2018-11-06T15:44:57.729Z,14.45
2018-11-06T15:45:57.680Z,14.42
2018-11-06T15:46:57.643Z,14.31
2018-11-06T15:47:57.606Z,14.42
2018-11-06T15:48:57.646Z,14.35
2018-11-06T15:49:57.610Z,14.34
2018-11-06T15:50:57.587Z,14.24
2018-11-06T15:51:57.559Z,14.21
2018-11-06T15:52:57.543Z,14.20
2018-11-06T15:53:57.546Z,14.12
2018-11-06T15:54:57.543Z,14.08
2018-11-06T15:55:57.577Z,13.99
2018-11-06T15:56:57.582Z,14.02
2018-11-06T15:57:57.509Z,13.90
2018-11-06T15:58:57.504Z,13.87
2018-11-06T15:59:57.510Z,13.90
2018-11-06T16:00:57.483Z,13.90
2018-11-06T16:01:57.436Z,13.84
2018-11-06T16:02:57.449Z,13.76
2018-11-06T16:03:57.431Z,13.72
2018-11-06T16:04:57.512Z,13.72
2018-11-06T16:05:57.453Z,13.61
2018-11-06T16:06:57.543Z,13.63
2018-11-06T16:07:57.528Z,13.50
2018-11-06T16:08:57.494Z,13.46
2018-11-06T16:09:57.457Z,13.47
2018-11-06T16:10:57.394Z,13.38
2018-11-06T16:11:57.363Z,13.31
2018-11-06T16:12:57.330Z,13.31
2018-11-06T16:13:57.324Z,13.25
2018-11-06T16:14:57.306Z,13.25
2018-11-06T16:15:57.286Z,13.17
2018-11-06T16:16:57.407Z,13.06
2018-11-06T16:17:57.465Z,13.04
2018-11-06T16:18:57.261Z,13.04
2018-11-06T16:19:57.317Z,13.03
2018-11-06T16:22:14.456Z,12.88
2018-11-06T16:24:25.352Z,12.88
2018-11-06T16:25:24.890Z,12.84
2018-11-06T16:26:24.766Z,12.88
2018-11-06T16:27:25.036Z,12.76
2018-11-06T16:28:24.816Z,12.74
2018-11-06T16:29:24.721Z,12.69
2018-11-06T16:30:24.733Z,12.69
2018-11-06T16:31:24.691Z,12.61
2018-11-06T16:32:24.728Z,12.66
2018-11-06T16:33:24.753Z,12.59
2018-11-06T16:34:24.651Z,12.56
2018-11-06T16:35:25.394Z,12.61
2018-11-06T16:36:24.636Z,12.52
2018-11-06T16:37:24.621Z,12.55
2018-11-06T16:38:24.666Z,12.52
2018-11-06T16:39:30.214Z,12.36
2018-11-06T16:40:25.454Z,12.43
2018-11-06T16:45:10.553Z,12.36
2018-11-06T16:46:10.227Z,12.36
2018-11-06T16:48:03.782Z,12.30
2018-11-06T16:49:06.052Z,12.29
2018-11-06T16:50:03.453Z,12.26
2018-11-06T17:01:18.425Z,11.98
2018-11-06T17:11:19.077Z,11.85
2018-11-06T17:12:18.698Z,11.79
2018-11-06T17:13:18.736Z,11.79
2018-11-06T17:14:20.848Z,11.81
2018-11-06T17:16:36.043Z,11.74
2018-11-06T17:17:35.525Z,11.74
2018-11-06T17:18:37.468Z,11.75
2018-11-06T17:21:39.850Z,11.64
2018-11-06T17:22:38.819Z,11.70
2018-11-06T17:25:03.813Z,11.62
2018-11-06T17:40:58.580Z,11.24
2018-11-06T17:42:24.975Z,11.27
2018-11-06T17:43:00.623Z,11.20
2018-11-06T17:43:57.760Z,11.20
2018-11-06T17:45:01.103Z,11.21
2018-11-06T17:47:35.553Z,11.16
2018-11-06T17:48:32.553Z,11.17
2018-11-06T17:49:35.663Z,11.19
2018-11-06T17:50:32.542Z,11.13
2018-11-06T17:52:49.070Z,11.19
2018-11-06T17:53:47.203Z,11.17
2018-11-06T17:56:20.894Z,11.17
2018-11-06T17:57:20.720Z,11.02
2018-11-06T17:58:20.647Z,11.09
2018-11-06T17:59:20.776Z,11.08
2018-11-06T18:00:25.375Z,11.05
2018-11-06T18:01:20.812Z,11.05
2018-11-06T18:03:49.017Z,11.05
2018-11-06T18:04:57.329Z,11.08
2018-11-06T18:05:48.469Z,11.06
2018-11-06T18:09:24.022Z,11.09
2018-11-06T18:10:24.262Z,11.09
2018-11-06T18:11:23.807Z,11.06
2018-11-06T18:12:24.056Z,11.08
2018-11-06T18:13:23.818Z,11.11
2018-11-06T18:15:36.733Z,11.05
2018-11-06T18:16:36.383Z,11.11
2018-11-06T18:17:36.744Z,11.06
2018-11-06T18:18:41.390Z,11.08
2018-11-06T18:21:04.666Z,11.06
2018-11-06T18:22:07.159Z,10.95
2018-11-06T18:23:04.057Z,11.01
2018-11-06T18:24:04.185Z,10.99
2018-11-06T18:25:04.038Z,10.98
2018-11-06T18:27:54.028Z,11.05
2018-11-06T18:28:54.144Z,11.02
2018-11-06T18:29:53.805Z,10.99
2018-11-06T18:30:53.763Z,11.06
2018-11-06T18:31:53.762Z,10.99
2018-11-06T18:32:53.713Z,11.02
2018-11-06T18:33:53.722Z,10.98
2018-11-06T18:34:53.697Z,10.99
2018-11-06T18:35:53.850Z,10.98
2018-11-06T18:36:53.670Z,10.93
2018-11-06T18:37:53.661Z,10.88
2018-11-06T18:38:53.656Z,10.90
2018-11-06T18:39:53.672Z,10.90
2018-11-06T18:40:53.659Z,10.91
2018-11-06T18:41:53.671Z,10.90
2018-11-06T18:42:53.902Z,10.86
2018-11-06T18:43:53.612Z,10.81
2018-11-06T18:44:53.572Z,10.84
2018-11-06T18:45:53.747Z,10.76
2018-11-06T18:46:54.099Z,10.60
2018-11-06T18:47:53.609Z,10.62
2018-11-06T18:48:53.576Z,10.63
2018-11-06T18:49:53.716Z,10.69
2018-11-06T18:50:53.632Z,10.58
2018-11-06T18:51:53.619Z,10.54
2018-11-06T18:52:53.579Z,10.47
2018-11-06T18:53:53.515Z,10.51
2018-11-06T18:54:53.529Z,10.51
2018-11-06T18:55:53.535Z,10.44
2018-11-06T18:56:53.514Z,10.44
2018-11-06T18:57:53.597Z,10.34
2018-11-06T18:58:53.519Z,10.39
2018-11-06T18:59:53.513Z,10.42
2018-11-06T19:00:53.467Z,10.35
2018-11-06T19:01:53.485Z,10.28
2018-11-06T19:02:53.401Z,10.32
2018-11-06T19:03:53.534Z,10.25
2018-11-06T19:04:53.427Z,10.32
2018-11-06T19:05:53.383Z,10.26
2018-11-06T19:06:53.573Z,10.25
2018-11-06T19:07:53.343Z,10.28
2018-11-06T19:08:53.721Z,10.10
2018-11-06T19:09:53.327Z,10.16
2018-11-06T19:10:53.427Z,10.16
2018-11-06T19:11:53.623Z,10.17
2018-11-06T19:12:53.318Z,9.98
2018-11-06T19:13:53.317Z,10.06
2018-11-06T19:14:53.530Z,10.01
2018-11-06T19:15:53.601Z,10.02
2018-11-06T19:16:53.387Z,10.06
2018-11-06T19:17:53.226Z,9.98
2018-11-06T19:18:53.263Z,9.95
2018-11-06T19:19:53.248Z,9.95
2018-11-06T19:20:53.284Z,9.93
2018-11-06T19:21:53.225Z,9.98
2018-11-06T19:22:53.205Z,9.92
2018-11-06T19:23:53.398Z,9.92
2018-11-06T19:24:53.264Z,9.80
2018-11-06T19:25:54.047Z,9.80
2018-11-06T19:26:53.120Z,9.81
2018-11-06T19:27:53.157Z,9.80
2018-11-06T19:28:53.096Z,9.85
2018-11-06T19:29:53.080Z,9.73
2018-11-06T19:30:53.097Z,9.71
2018-11-06T19:31:53.109Z,9.62
2018-11-06T19:33:00.254Z,9.67
2018-11-06T19:35:04.331Z,9.62
2018-11-06T19:36:04.797Z,9.58
2018-11-06T19:37:03.735Z,9.65
2018-11-06T19:38:03.786Z,9.59
2018-11-06T19:39:05.153Z,9.59
2018-11-06T19:40:10.489Z,9.56
2018-11-06T19:42:20.288Z,9.53
2018-11-06T19:43:20.206Z,9.58
2018-11-06T19:44:22.790Z,9.52
2018-11-06T19:45:22.483Z,9.50
2018-11-06T19:46:20.071Z,9.48
2018-11-06T19:47:20.118Z,9.52
2018-11-06T19:48:20.031Z,9.49
2018-11-06T19:50:54.302Z,9.44
2018-11-06T19:51:52.870Z,9.41
2018-11-06T19:52:52.984Z,9.45
2018-11-06T19:53:52.790Z,9.40
2018-11-06T19:54:52.622Z,9.31
2018-11-06T19:55:52.956Z,9.35
2018-11-06T19:56:52.648Z,9.34
2018-11-06T19:57:52.585Z,9.30
2018-11-06T19:58:52.607Z,9.23
2018-11-06T19:59:52.607Z,9.31
2018-11-06T20:00:52.927Z,9.34
2018-11-06T20:03:22.546Z,9.24
2018-11-06T20:04:22.256Z,9.16
2018-11-06T20:05:22.357Z,9.13
2018-11-06T20:06:22.253Z,9.15
2018-11-06T20:07:23.238Z,9.10
2018-11-06T20:08:22.321Z,9.16
2018-11-06T20:10:56.514Z,9.08
2018-11-06T20:11:56.659Z,9.03
2018-11-06T20:12:55.794Z,9.00
2018-11-06T20:14:00.821Z,8.97
2018-11-06T20:14:55.761Z,9.01
2018-11-06T20:15:56.687Z,9.06
2018-11-06T20:16:55.822Z,8.94
2018-11-06T20:17:55.745Z,8.94
2018-11-06T20:18:56.638Z,9.01
2018-11-06T20:19:55.596Z,8.97
2018-11-06T20:20:55.594Z,8.97
2018-11-06T20:21:55.650Z,9.00
2018-11-06T20:22:55.612Z,8.91
2018-11-06T21:09:00.173Z,8.24
2018-11-06T21:09:59.782Z,8.20
2018-11-06T21:10:59.726Z,8.21
2018-11-06T21:12:00.619Z,8.13
2018-11-06T21:12:59.660Z,8.17
2018-11-06T21:13:59.666Z,8.18
2018-11-06T21:14:59.615Z,8.07
2018-11-06T21:15:59.576Z,8.13
2018-11-06T21:16:59.633Z,8.09
2018-11-06T21:17:59.661Z,8.10
2018-11-06T21:18:59.591Z,8.04
2018-11-06T21:19:59.633Z,8.04
2018-11-06T21:20:59.549Z,8.04
2018-11-06T21:21:59.522Z,7.92
2018-11-06T21:22:59.511Z,7.94
2018-11-06T21:23:59.494Z,8.00
2018-11-06T21:24:59.670Z,7.96
2018-11-06T21:25:59.727Z,7.95
2018-11-06T21:26:59.604Z,8.06
2018-11-06T21:27:59.478Z,7.91
2018-11-06T21:29:00.027Z,8.02
2018-11-06T21:29:59.500Z,7.88
2018-11-06T21:30:59.416Z,7.92
2018-11-06T21:31:59.399Z,7.81
2018-11-06T21:32:59.454Z,7.79
2018-11-06T21:33:59.476Z,7.85
2018-11-06T21:34:59.383Z,7.85
2018-11-06T21:35:59.357Z,7.82
2018-11-06T21:36:59.397Z,7.84
2018-11-06T21:37:59.411Z,7.82
2018-11-06T21:38:59.360Z,7.82
2018-11-06T21:39:59.327Z,7.84
2018-11-06T21:40:59.343Z,7.82
2018-11-06T21:41:59.312Z,7.77
2018-11-06T21:42:59.281Z,7.79
2018-11-06T21:43:59.311Z,7.71
2018-11-06T21:44:59.261Z,7.67
2018-11-06T21:45:59.241Z,7.74
2018-11-06T21:46:59.284Z,7.62
2018-11-06T21:47:59.226Z,7.66
2018-11-06T21:48:59.212Z,7.62
2018-11-06T21:49:59.236Z,7.67
2018-11-06T21:51:09.126Z,7.67
2018-11-06T21:52:08.841Z,7.57
2018-11-06T21:53:07.874Z,7.52
2018-11-06T21:54:08.759Z,7.58
2018-11-06T21:55:09.086Z,7.62
2018-11-06T21:56:07.869Z,7.55
2018-11-06T21:56:59.261Z,7.57
2018-11-06T21:57:59.208Z,7.51
2018-11-06T21:58:59.192Z,7.47